Aviation Weather View - Albury, NSW
Albury
METAR YMAY 050000Z 03004KT 350 OVC001 03/03 Q1032
ADVISORY INFORMATION ONLY.
Information and images sourced on a "best effort" basis from
our own station 2.7NM north of the field at 1016ft AMSL.
Weather information is NOT from the Albury Airport.

Contact Ross on 0409-578-660
Updated 0036Z (05-Jun-2020 at 10:36:01 local)
Temperature 4.8 Deg C
QNH is 1031
Humidity is 100% RH
Dewpoint is 4.8 Deg C
Estimated Cloudbase is BELOW 1000 feet amsl
Wind: 2 KT from 203 degrees magnetic (191 true)
Runway 07 Crosswind 1KT Right to Left 1KT downwind
Runway 25 Crosswind 1KT Left to Right
Wind last 10 minutes: Average 1 KT
Solar Insolation: 414 W/m^2

TWR: 123.25 SMC: 121.8 AWIS: 134.525 ATIS: 115.6/133.85 Map
How to interpret the wind rose
Wind Rose
Solar Radiation Decoded METAR data
Albury Airport (94896, YMAY)
WMO Index: 95896
ID Name: YMAY
Date/Time: 05-Jun-2020 0000 UTC
Lat/Lon: 36.07S 146.95E
Wind: 030 deg true at 04.0 knots
Temperature: 3.0 deg C
Dewpoint: 3.0 deg C
QNH: 1032.2
Rain since 9am: 0.0
Rain last 10 mins: 0.0
Visibility: -9999 metres
AutoVisibility: 350 metres
Max Wind Gust last 10 mins: 06.0 knots
Overcast 30m (98ft)

Calculated humidity: 100.0 %RH